sensor_id;sensor_type;location;lat;lon;timestamp;temperature;humidity
80579;SHT31;69939;52.402;6.608;2023-05-15T00:00:58;11.02;95.43
80579;SHT31;69939;52.402;6.608;2023-05-15T00:03:25;11.01;95.36
80579;SHT31;69939;52.402;6.608;2023-05-15T00:05:52;10.99;95.61
80579;SHT31;69939;52.402;6.608;2023-05-15T00:08:19;10.97;95.27
80579;SHT31;69939;52.402;6.608;2023-05-15T00:10:50;10.98;95.46
80579;SHT31;69939;52.402;6.608;2023-05-15T00:13:17;10.94;95.48
80579;SHT31;69939;52.402;6.608;2023-05-15T00:15:47;10.94;95.46
80579;SHT31;69939;52.402;6.608;2023-05-15T00:18:15;10.88;95.59
80579;SHT31;69939;52.402;6.608;2023-05-15T00:20:42;10.88;95.98
80579;SHT31;69939;52.402;6.608;2023-05-15T00:23:10;10.85;96.09
80579;SHT31;69939;52.402;6.608;2023-05-15T00:25:40;10.84;96.26
80579;SHT31;69939;52.402;6.608;2023-05-15T00:28:08;10.77;96.40
80579;SHT31;69939;52.402;6.608;2023-05-15T00:30:35;10.68;96.75
80579;SHT31;69939;52.402;6.608;2023-05-15T00:33:02;10.65;96.24
80579;SHT31;69939;52.402;6.608;2023-05-15T00:35:30;10.59;96.44
80579;SHT31;69939;52.402;6.608;2023-05-15T00:37:57;10.57;96.72
80579;SHT31;69939;52.402;6.608;2023-05-15T00:40:24;10.53;96.67
80579;SHT31;69939;52.402;6.608;2023-05-15T00:42:54;10.52;96.92
80579;SHT31;69939;52.402;6.608;2023-05-15T00:45:23;10.54;96.69
80579;SHT31;69939;52.402;6.608;2023-05-15T00:47:52;10.54;96.79
80579;SHT31;69939;52.402;6.608;2023-05-15T00:50:21;10.52;96.95
80579;SHT31;69939;52.402;6.608;2023-05-15T00:52:49;10.46;96.94
80579;SHT31;69939;52.402;6.608;2023-05-15T00:55:16;10.46;97.13
80579;SHT31;69939;52.402;6.608;2023-05-15T00:57:43;10.36;97.34
80579;SHT31;69939;52.402;6.608;2023-05-15T01:00:13;10.34;97.47
80579;SHT31;69939;52.402;6.608;2023-05-15T01:02:47;10.26;97.50
80579;SHT31;69939;52.402;6.608;2023-05-15T01:05:14;10.22;97.74
80579;SHT31;69939;52.402;6.608;2023-05-15T01:07:47;10.26;97.75
80579;SHT31;69939;52.402;6.608;2023-05-15T01:10:18;10.22;97.73
80579;SHT31;69939;52.402;6.608;2023-05-15T01:12:48;10.22;97.97
80579;SHT31;69939;52.402;6.608;2023-05-15T01:15:16;10.20;97.80
80579;SHT31;69939;52.402;6.608;2023-05-15T01:17:46;10.15;97.93
80579;SHT31;69939;52.402;6.608;2023-05-15T01:20:12;10.16;98.12
80579;SHT31;69939;52.402;6.608;2023-05-15T01:22:58;10.12;98.12
80579;SHT31;69939;52.402;6.608;2023-05-15T01:26:00;10.10;98.37
80579;SHT31;69939;52.402;6.608;2023-05-15T01:28:50;10.08;98.36
80579;SHT31;69939;52.402;6.608;2023-05-15T01:31:25;10.09;98.33
80579;SHT31;69939;52.402;6.608;2023-05-15T01:34:01;10.10;98.42
80579;SHT31;69939;52.402;6.608;2023-05-15T01:36:36;10.12;98.11
80579;SHT31;69939;52.402;6.608;2023-05-15T01:39:09;10.12;98.06
80579;SHT31;69939;52.402;6.608;2023-05-15T01:41:41;10.22;98.00
80579;SHT31;69939;52.402;6.608;2023-05-15T01:44:23;10.23;98.18
80579;SHT31;69939;52.402;6.608;2023-05-15T01:46:56;10.19;98.24
80579;SHT31;69939;52.402;6.608;2023-05-15T01:49:26;10.15;98.52
80579;SHT31;69939;52.402;6.608;2023-05-15T01:52:05;10.16;98.19
80579;SHT31;69939;52.402;6.608;2023-05-15T01:54:41;10.16;98.45
80579;SHT31;69939;52.402;6.608;2023-05-15T01:57:08;10.12;98.71
80579;SHT31;69939;52.402;6.608;2023-05-15T01:59:38;10.10;98.69
80579;SHT31;69939;52.402;6.608;2023-05-15T02:02:09;10.22;98.41
80579;SHT31;69939;52.402;6.608;2023-05-15T02:04:37;10.13;98.49
80579;SHT31;69939;52.402;6.608;2023-05-15T02:07:04;10.12;98.91
80579;SHT31;69939;52.402;6.608;2023-05-15T02:09:33;10.09;98.69
80579;SHT31;69939;52.402;6.608;2023-05-15T02:12:01;10.12;98.95
80579;SHT31;69939;52.402;6.608;2023-05-15T02:14:30;10.12;99.30
80579;SHT31;69939;52.402;6.608;2023-05-15T02:16:58;10.02;99.03
80579;SHT31;69939;52.402;6.608;2023-05-15T02:19:25;10.09;99.28
80579;SHT31;69939;52.402;6.608;2023-05-15T02:21:53;10.08;99.33
80579;SHT31;69939;52.402;6.608;2023-05-15T02:24:20;10.08;98.99
80579;SHT31;69939;52.402;6.608;2023-05-15T02:26:54;10.02;99.19
80579;SHT31;69939;52.402;6.608;2023-05-15T02:29:30;9.94;99.35
80579;SHT31;69939;52.402;6.608;2023-05-15T02:32:12;9.86;99.67
80579;SHT31;69939;52.402;6.608;2023-05-15T02:34:50;9.99;99.61
80579;SHT31;69939;52.402;6.608;2023-05-15T02:37:26;10.01;99.43
80579;SHT31;69939;52.402;6.608;2023-05-15T02:39:59;9.92;99.84
80579;SHT31;69939;52.402;6.608;2023-05-15T02:42:27;9.84;99.99
80579;SHT31;69939;52.402;6.608;2023-05-15T02:44:57;9.84;99.99
80579;SHT31;69939;52.402;6.608;2023-05-15T02:47:27;9.88;99.99
80579;SHT31;69939;52.402;6.608;2023-05-15T02:49:56;10.03;99.99
80579;SHT31;69939;52.402;6.608;2023-05-15T02:52:24;9.82;99.99
80579;SHT31;69939;52.402;6.608;2023-05-15T02:54:51;9.77;99.99
80579;SHT31;69939;52.402;6.608;2023-05-15T02:57:19;9.88;99.99
80579;SHT31;69939;52.402;6.608;2023-05-15T02:59:45;9.82;99.99
80579;SHT31;69939;52.402;6.608;2023-05-15T03:02:12;9.67;99.99
80579;SHT31;69939;52.402;6.608;2023-05-15T03:04:42;9.67;99.99
80579;SHT31;69939;52.402;6.608;2023-05-15T03:07:08;9.73;99.99
80579;SHT31;69939;52.402;6.608;2023-05-15T03:09:35;9.74;99.99
80579;SHT31;69939;52.402;6.608;2023-05-15T03:12:03;9.73;99.99
80579;SHT31;69939;52.402;6.608;2023-05-15T03:14:30;9.67;99.99
80579;SHT31;69939;52.402;6.608;2023-05-15T03:16:56;9.55;99.99
80579;SHT31;69939;52.402;6.608;2023-05-15T03:19:24;9.64;99.99
80579;SHT31;69939;52.402;6.608;2023-05-15T03:21:52;9.52;99.99
80579;SHT31;69939;52.402;6.608;2023-05-15T03:24:21;9.51;99.99
80579;SHT31;69939;52.402;6.608;2023-05-15T03:26:48;9.48;99.99
80579;SHT31;69939;52.402;6.608;2023-05-15T03:29:14;9.43;99.99
80579;SHT31;69939;52.402;6.608;2023-05-15T03:31:41;9.43;99.99
80579;SHT31;69939;52.402;6.608;2023-05-15T03:34:08;9.54;99.99
80579;SHT31;69939;52.402;6.608;2023-05-15T03:36:36;9.51;99.99
80579;SHT31;69939;52.402;6.608;2023-05-15T03:39:04;9.67;99.99
80579;SHT31;69939;52.402;6.608;2023-05-15T03:41:30;9.64;99.99
80579;SHT31;69939;52.402;6.608;2023-05-15T03:43:57;9.64;99.99
80579;SHT31;69939;52.402;6.608;2023-05-15T03:46:24;9.82;99.99
80579;SHT31;69939;52.402;6.608;2023-05-15T03:48:51;9.77;99.99
80579;SHT31;69939;52.402;6.608;2023-05-15T03:51:21;9.73;99.99
80579;SHT31;69939;52.402;6.608;2023-05-15T03:53:48;9.70;99.99
80579;SHT31;69939;52.402;6.608;2023-05-15T03:56:18;9.46;99.58
80579;SHT31;69939;52.402;6.608;2023-05-15T03:58:45;9.48;99.81
80579;SHT31;69939;52.402;6.608;2023-05-15T04:01:12;9.41;99.99
80579;SHT31;69939;52.402;6.608;2023-05-15T04:03:39;9.48;99.99
80579;SHT31;69939;52.402;6.608;2023-05-15T04:06:07;9.48;99.99
80579;SHT31;69939;52.402;6.608;2023-05-15T04:08:34;9.51;99.99
80579;SHT31;69939;52.402;6.608;2023-05-15T04:11:00;9.50;99.99
80579;SHT31;69939;52.402;6.608;2023-05-15T04:13:28;9.36;99.99
80579;SHT31;69939;52.402;6.608;2023-05-15T04:15:55;9.33;99.99
80579;SHT31;69939;52.402;6.608;2023-05-15T04:18:23;9.38;99.99
80579;SHT31;69939;52.402;6.608;2023-05-15T04:20:50;9.38;99.99
80579;SHT31;69939;52.402;6.608;2023-05-15T04:23:18;9.34;99.99
80579;SHT31;69939;52.402;6.608;2023-05-15T04:25:44;9.30;99.99
80579;SHT31;69939;52.402;6.608;2023-05-15T04:28:12;9.46;99.99
80579;SHT31;69939;52.402;6.608;2023-05-15T04:30:40;9.52;99.99
80579;SHT31;69939;52.402;6.608;2023-05-15T04:33:07;9.37;99.99
80579;SHT31;69939;52.402;6.608;2023-05-15T04:35:35;9.31;99.99
80579;SHT31;69939;52.402;6.608;2023-05-15T04:38:02;9.23;99.99
80579;SHT31;69939;52.402;6.608;2023-05-15T04:40:29;9.29;99.99
80579;SHT31;69939;52.402;6.608;2023-05-15T04:42:57;9.22;99.99
80579;SHT31;69939;52.402;6.608;2023-05-15T04:45:25;9.34;99.95
80579;SHT31;69939;52.402;6.608;2023-05-15T04:47:53;9.33;99.55
80579;SHT31;69939;52.402;6.608;2023-05-15T04:50:20;9.43;99.61
80579;SHT31;69939;52.402;6.608;2023-05-15T04:52:46;9.37;99.48
80579;SHT31;69939;52.402;6.608;2023-05-15T04:55:13;9.40;99.43
80579;SHT31;69939;52.402;6.608;2023-05-15T04:57:41;9.34;99.10
80579;SHT31;69939;52.402;6.608;2023-05-15T05:00:08;9.48;99.47
80579;SHT31;69939;52.402;6.608;2023-05-15T05:02:39;9.37;99.00
80579;SHT31;69939;52.402;6.608;2023-05-15T05:05:08;9.27;99.44
80579;SHT31;69939;52.402;6.608;2023-05-15T05:07:35;9.37;99.09
80579;SHT31;69939;52.402;6.608;2023-05-15T05:10:03;9.22;98.63
80579;SHT31;69939;52.402;6.608;2023-05-15T05:12:30;9.08;98.90
80579;SHT31;69939;52.402;6.608;2023-05-15T05:14:57;9.10;98.93
80579;SHT31;69939;52.402;6.608;2023-05-15T05:17:24;9.22;98.64
80579;SHT31;69939;52.402;6.608;2023-05-15T05:19:51;8.98;98.71
80579;SHT31;69939;52.402;6.608;2023-05-15T05:22:19;9.05;98.64
80579;SHT31;69939;52.402;6.608;2023-05-15T05:24:46;9.15;99.09
80579;SHT31;69939;52.402;6.608;2023-05-15T05:27:17;9.08;98.35
80579;SHT31;69939;52.402;6.608;2023-05-15T05:29:44;9.18;98.73
80579;SHT31;69939;52.402;6.608;2023-05-15T05:32:12;9.09;98.11
80579;SHT31;69939;52.402;6.608;2023-05-15T05:34:38;9.34;97.61
80579;SHT31;69939;52.402;6.608;2023-05-15T05:37:05;9.40;97.64
80579;SHT31;69939;52.402;6.608;2023-05-15T05:39:34;9.29;97.79
80579;SHT31;69939;52.402;6.608;2023-05-15T05:42:00;9.52;97.64
80579;SHT31;69939;52.402;6.608;2023-05-15T05:44:27;9.61;97.46
80579;SHT31;69939;52.402;6.608;2023-05-15T05:46:54;9.73;97.30
80579;SHT31;69939;52.402;6.608;2023-05-15T05:49:20;9.75;96.27
80579;SHT31;69939;52.402;6.608;2023-05-15T05:51:47;9.70;96.11
80579;SHT31;69939;52.402;6.608;2023-05-15T05:54:15;9.65;96.51
80579;SHT31;69939;52.402;6.608;2023-05-15T05:56:43;9.65;96.54
80579;SHT31;69939;52.402;6.608;2023-05-15T05:59:17;9.48;96.41
80579;SHT31;69939;52.402;6.608;2023-05-15T06:01:44;9.54;96.47
80579;SHT31;69939;52.402;6.608;2023-05-15T06:04:13;9.73;96.35
80579;SHT31;69939;52.402;6.608;2023-05-15T06:06:40;9.88;95.89
80579;SHT31;69939;52.402;6.608;2023-05-15T06:09:07;9.85;93.92
80579;SHT31;69939;52.402;6.608;2023-05-15T06:11:33;9.78;94.49
80579;SHT31;69939;52.402;6.608;2023-05-15T06:14:02;10.29;93.32
80579;SHT31;69939;52.402;6.608;2023-05-15T06:16:29;10.47;93.48
80579;SHT31;69939;52.402;6.608;2023-05-15T06:18:56;10.40;92.91
80579;SHT31;69939;52.402;6.608;2023-05-15T06:21:22;10.36;92.19
80579;SHT31;69939;52.402;6.608;2023-05-15T06:23:49;10.13;92.11
80579;SHT31;69939;52.402;6.608;2023-05-15T06:26:16;10.67;91.23
80579;SHT31;69939;52.402;6.608;2023-05-15T06:28:42;10.68;89.57
80579;SHT31;69939;52.402;6.608;2023-05-15T06:31:12;10.72;88.97
80579;SHT31;69939;52.402;6.608;2023-05-15T06:33:41;10.78;89.32
80579;SHT31;69939;52.402;6.608;2023-05-15T06:36:08;10.67;89.73
80579;SHT31;69939;52.402;6.608;2023-05-15T06:38:34;11.25;87.84
80579;SHT31;69939;52.402;6.608;2023-05-15T06:41:03;11.07;87.54
80579;SHT31;69939;52.402;6.608;2023-05-15T06:43:30;12.08;84.48
80579;SHT31;69939;52.402;6.608;2023-05-15T06:45:57;13.59;79.63
80579;SHT31;69939;52.402;6.608;2023-05-15T06:48:25;13.15;80.39
80579;SHT31;69939;52.402;6.608;2023-05-15T06:50:52;14.04;77.00
80579;SHT31;69939;52.402;6.608;2023-05-15T06:53:19;13.45;80.05
80579;SHT31;69939;52.402;6.608;2023-05-15T06:55:46;13.73;78.39
80579;SHT31;69939;52.402;6.608;2023-05-15T06:58:13;15.22;74.75
80579;SHT31;69939;52.402;6.608;2023-05-15T07:00:42;15.14;73.24
80579;SHT31;69939;52.402;6.608;2023-05-15T07:03:08;16.09;70.51
80579;SHT31;69939;52.402;6.608;2023-05-15T07:05:36;17.29;65.89
80579;SHT31;69939;52.402;6.608;2023-05-15T07:08:03;15.98;70.02
80579;SHT31;69939;52.402;6.608;2023-05-15T07:10:30;16.57;68.10
80579;SHT31;69939;52.402;6.608;2023-05-15T07:12:57;16.33;68.93
80579;SHT31;69939;52.402;6.608;2023-05-15T07:15:24;16.04;69.48
80579;SHT31;69939;52.402;6.608;2023-05-15T07:17:50;16.40;68.10
80579;SHT31;69939;52.402;6.608;2023-05-15T07:20:17;15.19;70.85
80579;SHT31;69939;52.402;6.608;2023-05-15T07:22:45;14.93;71.30
80579;SHT31;69939;52.402;6.608;2023-05-15T07:25:12;15.51;69.24
80579;SHT31;69939;52.402;6.608;2023-05-15T07:27:38;16.32;67.11
80579;SHT31;69939;52.402;6.608;2023-05-15T07:30:07;16.59;67.07
80579;SHT31;69939;52.402;6.608;2023-05-15T07:32:37;15.44;71.60
80579;SHT31;69939;52.402;6.608;2023-05-15T07:35:06;14.85;74.67
80579;SHT31;69939;52.402;6.608;2023-05-15T07:37:35;14.98;75.57
80579;SHT31;69939;52.402;6.608;2023-05-15T07:40:05;14.52;74.77
80579;SHT31;69939;52.402;6.608;2023-05-15T07:42:32;15.26;74.21
80579;SHT31;69939;52.402;6.608;2023-05-15T07:45:00;15.82;70.56
80579;SHT31;69939;52.402;6.608;2023-05-15T07:47:27;15.75;70.37
80579;SHT31;69939;52.402;6.608;2023-05-15T07:49:54;17.35;65.55
80579;SHT31;69939;52.402;6.608;2023-05-15T07:52:20;17.42;63.99
80579;SHT31;69939;52.402;6.608;2023-05-15T07:54:47;16.34;67.47
80579;SHT31;69939;52.402;6.608;2023-05-15T07:57:17;17.49;64.62
80579;SHT31;69939;52.402;6.608;2023-05-15T07:59:44;17.28;63.62
80579;SHT31;69939;52.402;6.608;2023-05-15T08:02:11;17.57;64.44
80579;SHT31;69939;52.402;6.608;2023-05-15T08:04:38;17.77;63.79
80579;SHT31;69939;52.402;6.608;2023-05-15T08:07:07;17.66;63.52
80579;SHT31;69939;52.402;6.608;2023-05-15T08:09:34;18.80;60.46
80579;SHT31;69939;52.402;6.608;2023-05-15T08:12:13;16.04;65.87
80579;SHT31;69939;52.402;6.608;2023-05-15T08:14:47;16.33;68.62
80579;SHT31;69939;52.402;6.608;2023-05-15T08:17:15;18.70;61.50
80579;SHT31;69939;52.402;6.608;2023-05-15T08:19:42;19.06;59.50
80579;SHT31;69939;52.402;6.608;2023-05-15T08:22:09;16.50;65.85
80579;SHT31;69939;52.402;6.608;2023-05-15T08:24:36;16.78;65.24
80579;SHT31;69939;52.402;6.608;2023-05-15T08:27:03;19.27;62.16
80579;SHT31;69939;52.402;6.608;2023-05-15T08:29:31;17.94;62.73
80579;SHT31;69939;52.402;6.608;2023-05-15T08:31:59;17.00;64.77
80579;SHT31;69939;52.402;6.608;2023-05-15T08:34:25;18.02;64.58
80579;SHT31;69939;52.402;6.608;2023-05-15T08:36:52;19.44;58.58
80579;SHT31;69939;52.402;6.608;2023-05-15T08:39:20;19.96;57.49
80579;SHT31;69939;52.402;6.608;2023-05-15T08:41:53;20.30;54.84
80579;SHT31;69939;52.402;6.608;2023-05-15T08:44:23;19.34;57.92
80579;SHT31;69939;52.402;6.608;2023-05-15T08:46:52;20.28;55.36
80579;SHT31;69939;52.402;6.608;2023-05-15T08:49:28;17.80;60.50
80579;SHT31;69939;52.402;6.608;2023-05-15T08:52:00;19.68;57.22
80579;SHT31;69939;52.402;6.608;2023-05-15T08:54:27;19.76;56.03
80579;SHT31;69939;52.402;6.608;2023-05-15T08:56:54;19.54;58.89
80579;SHT31;69939;52.402;6.608;2023-05-15T08:59:22;17.42;63.24
80579;SHT31;69939;52.402;6.608;2023-05-15T09:01:49;17.29;65.41
80579;SHT31;69939;52.402;6.608;2023-05-15T09:04:17;17.56;61.55
80579;SHT31;69939;52.402;6.608;2023-05-15T09:06:46;19.18;60.50
80579;SHT31;69939;52.402;6.608;2023-05-15T09:09:13;18.18;62.23
80579;SHT31;69939;52.402;6.608;2023-05-15T09:11:42;18.41;61.54
80579;SHT31;69939;52.402;6.608;2023-05-15T09:14:10;18.38;60.81
80579;SHT31;69939;52.402;6.608;2023-05-15T09:16:37;19.52;60.00
80579;SHT31;69939;52.402;6.608;2023-05-15T09:19:04;18.90;61.85
80579;SHT31;69939;52.402;6.608;2023-05-15T09:21:32;20.07;58.07
80579;SHT31;69939;52.402;6.608;2023-05-15T09:24:24;20.43;58.94
80579;SHT31;69939;52.402;6.608;2023-05-15T09:27:01;21.24;52.94
80579;SHT31;69939;52.402;6.608;2023-05-15T09:29:29;18.12;61.38
80579;SHT31;69939;52.402;6.608;2023-05-15T09:32:01;17.49;66.04
80579;SHT31;69939;52.402;6.608;2023-05-15T09:34:29;19.20;62.03
80579;SHT31;69939;52.402;6.608;2023-05-15T09:36:57;19.06;60.41
80579;SHT31;69939;52.402;6.608;2023-05-15T09:39:27;18.09;61.15
80579;SHT31;69939;52.402;6.608;2023-05-15T09:42:04;18.19;61.43
80579;SHT31;69939;52.402;6.608;2023-05-15T09:44:32;18.41;61.66
80579;SHT31;69939;52.402;6.608;2023-05-15T09:46:59;19.65;59.74
80579;SHT31;69939;52.402;6.608;2023-05-15T09:49:27;18.28;62.45
80579;SHT31;69939;52.402;6.608;2023-05-15T09:51:57;19.22;60.56
80579;SHT31;69939;52.402;6.608;2023-05-15T09:54:25;18.73;63.29
80579;SHT31;69939;52.402;6.608;2023-05-15T09:56:55;17.50;64.43
80579;SHT31;69939;52.402;6.608;2023-05-15T09:59:22;19.24;62.03
80579;SHT31;69939;52.402;6.608;2023-05-15T10:01:49;20.16;61.37
80579;SHT31;69939;52.402;6.608;2023-05-15T10:04:17;17.50;64.09
80579;SHT31;69939;52.402;6.608;2023-05-15T10:06:47;18.81;63.58
80579;SHT31;69939;52.402;6.608;2023-05-15T10:09:17;18.94;61.75
80579;SHT31;69939;52.402;6.608;2023-05-15T10:11:49;21.23;60.77
80579;SHT31;69939;52.402;6.608;2023-05-15T10:14:18;19.94;60.48
80579;SHT31;69939;52.402;6.608;2023-05-15T10:16:48;19.12;61.94
80579;SHT31;69939;52.402;6.608;2023-05-15T10:19:19;18.62;63.57
80579;SHT31;69939;52.402;6.608;2023-05-15T10:21:49;20.12;60.89
80579;SHT31;69939;52.402;6.608;2023-05-15T10:24:19;19.76;61.53
80579;SHT31;69939;52.402;6.608;2023-05-15T10:26:48;19.32;62.23
80579;SHT31;69939;52.402;6.608;2023-05-15T10:29:17;19.42;62.69
80579;SHT31;69939;52.402;6.608;2023-05-15T10:31:48;18.48;63.17
80579;SHT31;69939;52.402;6.608;2023-05-15T10:34:17;19.27;64.52
80579;SHT31;69939;52.402;6.608;2023-05-15T10:36:45;20.38;59.73
80579;SHT31;69939;52.402;6.608;2023-05-15T10:39:15;20.58;59.62
80579;SHT31;69939;52.402;6.608;2023-05-15T10:41:44;19.51;64.87
80579;SHT31;69939;52.402;6.608;2023-05-15T10:44:13;20.06;61.35
80579;SHT31;69939;52.402;6.608;2023-05-15T10:46:41;19.07;63.96
80579;SHT31;69939;52.402;6.608;2023-05-15T10:49:08;19.58;62.65
80579;SHT31;69939;52.402;6.608;2023-05-15T10:51:36;20.47;59.35
80579;SHT31;69939;52.402;6.608;2023-05-15T10:54:04;20.76;64.02
80579;SHT31;69939;52.402;6.608;2023-05-15T10:56:32;19.17;64.99
80579;SHT31;69939;52.402;6.608;2023-05-15T10:59:04;20.49;56.69
80579;SHT31;69939;52.402;6.608;2023-05-15T11:01:34;21.54;56.43
80579;SHT31;69939;52.402;6.608;2023-05-15T11:04:08;20.09;61.97
80579;SHT31;69939;52.402;6.608;2023-05-15T11:06:38;19.51;60.81
80579;SHT31;69939;52.402;6.608;2023-05-15T11:09:32;22.20;59.98
80579;SHT31;69939;52.402;6.608;2023-05-15T11:12:01;20.89;59.99
80579;SHT31;69939;52.402;6.608;2023-05-15T11:14:29;19.66;60.03
80579;SHT31;69939;52.402;6.608;2023-05-15T11:17:02;21.30;57.83
80579;SHT31;69939;52.402;6.608;2023-05-15T11:19:32;20.31;59.00
80579;SHT31;69939;52.402;6.608;2023-05-15T11:22:16;18.80;64.79
80579;SHT31;69939;52.402;6.608;2023-05-15T11:24:49;19.15;60.44
80579;SHT31;69939;52.402;6.608;2023-05-15T11:27:18;20.47;58.51
80579;SHT31;69939;52.402;6.608;2023-05-15T11:30:02;20.69;60.52
80579;SHT31;69939;52.402;6.608;2023-05-15T11:32:42;21.33;58.91
80579;SHT31;69939;52.402;6.608;2023-05-15T11:35:17;19.22;61.52
80579;SHT31;69939;52.402;6.608;2023-05-15T11:37:48;19.36;61.51
80579;SHT31;69939;52.402;6.608;2023-05-15T11:40:22;19.90;59.86
80579;SHT31;69939;52.402;6.608;2023-05-15T11:43:07;20.78;57.69
80579;SHT31;69939;52.402;6.608;2023-05-15T11:45:45;21.04;58.94
80579;SHT31;69939;52.402;6.608;2023-05-15T11:48:16;21.59;59.40
80579;SHT31;69939;52.402;6.608;2023-05-15T11:50:44;21.99;59.21
80579;SHT31;69939;52.402;6.608;2023-05-15T11:53:11;21.07;61.10
80579;SHT31;69939;52.402;6.608;2023-05-15T11:55:39;20.12;65.90
80579;SHT31;69939;52.402;6.608;2023-05-15T11:58:12;20.24;61.14
80579;SHT31;69939;52.402;6.608;2023-05-15T12:00:41;19.35;63.58
80579;SHT31;69939;52.402;6.608;2023-05-15T12:03:23;19.72;62.64
80579;SHT31;69939;52.402;6.608;2023-05-15T12:05:51;20.31;63.09
80579;SHT31;69939;52.402;6.608;2023-05-15T12:08:19;18.84;62.76
80579;SHT31;69939;52.402;6.608;2023-05-15T12:10:46;18.94;63.36
80579;SHT31;69939;52.402;6.608;2023-05-15T12:13:14;19.35;59.69
80579;SHT31;69939;52.402;6.608;2023-05-15T12:15:44;18.48;58.86
80579;SHT31;69939;52.402;6.608;2023-05-15T12:18:12;19.90;58.97
80579;SHT31;69939;52.402;6.608;2023-05-15T12:20:40;21.38;56.54
80579;SHT31;69939;52.402;6.608;2023-05-15T12:23:09;19.76;55.95
80579;SHT31;69939;52.402;6.608;2023-05-15T12:25:38;19.65;56.78
80579;SHT31;69939;52.402;6.608;2023-05-15T12:28:04;20.09;58.77
80579;SHT31;69939;52.402;6.608;2023-05-15T12:30:38;21.04;54.56
80579;SHT31;69939;52.402;6.608;2023-05-15T12:33:06;20.47;56.62
80579;SHT31;69939;52.402;6.608;2023-05-15T12:35:35;20.30;54.95
80579;SHT31;69939;52.402;6.608;2023-05-15T12:38:13;21.03;55.71
80579;SHT31;69939;52.402;6.608;2023-05-15T12:40:45;21.64;55.64
80579;SHT31;69939;52.402;6.608;2023-05-15T12:43:12;21.48;53.49
80579;SHT31;69939;52.402;6.608;2023-05-15T12:45:41;20.61;55.61
80579;SHT31;69939;52.402;6.608;2023-05-15T12:48:13;21.24;57.53
80579;SHT31;69939;52.402;6.608;2023-05-15T12:50:46;20.28;58.90
80579;SHT31;69939;52.402;6.608;2023-05-15T12:53:34;19.36;59.81
80579;SHT31;69939;52.402;6.608;2023-05-15T12:56:03;19.52;60.25
80579;SHT31;69939;52.402;6.608;2023-05-15T12:58:31;21.14;54.61
80579;SHT31;69939;52.402;6.608;2023-05-15T13:00:58;21.69;50.25
80579;SHT31;69939;52.402;6.608;2023-05-15T13:03:28;21.31;52.53
80579;SHT31;69939;52.402;6.608;2023-05-15T13:05:55;21.88;51.88
80579;SHT31;69939;52.402;6.608;2023-05-15T13:08:22;22.36;51.79
80579;SHT31;69939;52.402;6.608;2023-05-15T13:10:57;21.73;49.19
80579;SHT31;69939;52.402;6.608;2023-05-15T13:13:40;20.21;54.66
80579;SHT31;69939;52.402;6.608;2023-05-15T13:16:17;21.89;52.01
80579;SHT31;69939;52.402;6.608;2023-05-15T13:18:44;21.57;53.56
80579;SHT31;69939;52.402;6.608;2023-05-15T13:21:11;20.54;56.76
80579;SHT31;69939;52.402;6.608;2023-05-15T13:23:38;20.23;55.84
80579;SHT31;69939;52.402;6.608;2023-05-15T13:26:06;20.58;58.11
80579;SHT31;69939;52.402;6.608;2023-05-15T13:28:33;20.88;53.07
80579;SHT31;69939;52.402;6.608;2023-05-15T13:31:00;21.96;53.70
80579;SHT31;69939;52.402;6.608;2023-05-15T13:33:27;20.06;56.89
80579;SHT31;69939;52.402;6.608;2023-05-15T13:35:54;20.37;56.72
80579;SHT31;69939;52.402;6.608;2023-05-15T13:38:21;20.96;56.21
80579;SHT31;69939;52.402;6.608;2023-05-15T13:40:48;20.61;53.93
80579;SHT31;69939;52.402;6.608;2023-05-15T13:43:16;20.85;54.80
80579;SHT31;69939;52.402;6.608;2023-05-15T13:45:42;21.59;55.03
80579;SHT31;69939;52.402;6.608;2023-05-15T13:48:12;21.22;56.68
80579;SHT31;69939;52.402;6.608;2023-05-15T13:50:40;21.89;51.48
80579;SHT31;69939;52.402;6.608;2023-05-15T13:53:09;21.58;55.79
80579;SHT31;69939;52.402;6.608;2023-05-15T13:55:36;20.41;56.72
80579;SHT31;69939;52.402;6.608;2023-05-15T13:58:03;20.58;60.21
80579;SHT31;69939;52.402;6.608;2023-05-15T14:00:31;21.06;57.49
80579;SHT31;69939;52.402;6.608;2023-05-15T14:02:58;20.91;57.99
80579;SHT31;69939;52.402;6.608;2023-05-15T14:05:24;20.73;56.99
80579;SHT31;69939;52.402;6.608;2023-05-15T14:07:51;21.14;59.83
80579;SHT31;69939;52.402;6.608;2023-05-15T14:10:18;20.43;60.07
80579;SHT31;69939;52.402;6.608;2023-05-15T14:12:45;19.72;63.47
80579;SHT31;69939;52.402;6.608;2023-05-15T14:15:11;18.48;64.61
80579;SHT31;69939;52.402;6.608;2023-05-15T14:17:39;17.84;66.79
80579;SHT31;69939;52.402;6.608;2023-05-15T14:20:08;18.28;66.56
80579;SHT31;69939;52.402;6.608;2023-05-15T14:22:37;17.93;66.64
80579;SHT31;69939;52.402;6.608;2023-05-15T14:25:06;18.28;65.59
80579;SHT31;69939;52.402;6.608;2023-05-15T14:27:34;18.16;65.16
80579;SHT31;69939;52.402;6.608;2023-05-15T14:30:00;17.51;64.64
80579;SHT31;69939;52.402;6.608;2023-05-15T14:32:27;17.76;66.51
80579;SHT31;69939;52.402;6.608;2023-05-15T14:34:55;18.00;65.55
80579;SHT31;69939;52.402;6.608;2023-05-15T14:37:24;16.84;69.23
80579;SHT31;69939;52.402;6.608;2023-05-15T14:39:51;16.67;70.07
80579;SHT31;69939;52.402;6.608;2023-05-15T14:42:19;16.67;70.28
80579;SHT31;69939;52.402;6.608;2023-05-15T14:44:46;17.08;70.95
80579;SHT31;69939;52.402;6.608;2023-05-15T14:47:13;16.59;71.82
80579;SHT31;69939;52.402;6.608;2023-05-15T14:49:41;16.94;70.71
80579;SHT31;69939;52.402;6.608;2023-05-15T14:52:10;16.43;70.92
80579;SHT31;69939;52.402;6.608;2023-05-15T14:54:37;17.16;69.68
80579;SHT31;69939;52.402;6.608;2023-05-15T14:57:05;17.43;69.05
80579;SHT31;69939;52.402;6.608;2023-05-15T14:59:32;17.22;69.11
80579;SHT31;69939;52.402;6.608;2023-05-15T15:01:59;16.80;69.88
80579;SHT31;69939;52.402;6.608;2023-05-15T15:04:25;16.30;71.94
80579;SHT31;69939;52.402;6.608;2023-05-15T15:06:54;16.53;71.11
80579;SHT31;69939;52.402;6.608;2023-05-15T15:09:23;16.82;70.30
80579;SHT31;69939;52.402;6.608;2023-05-15T15:11:50;16.37;71.35
80579;SHT31;69939;52.402;6.608;2023-05-15T15:14:17;16.29;72.00
80579;SHT31;69939;52.402;6.608;2023-05-15T15:16:43;16.17;73.24
80579;SHT31;69939;52.402;6.608;2023-05-15T15:19:11;15.85;73.70
80579;SHT31;69939;52.402;6.608;2023-05-15T15:21:38;16.36;72.85
80579;SHT31;69939;52.402;6.608;2023-05-15T15:24:05;16.33;73.63
80579;SHT31;69939;52.402;6.608;2023-05-15T15:26:34;17.01;72.77
80579;SHT31;69939;52.402;6.608;2023-05-15T15:29:01;16.87;73.54
80579;SHT31;69939;52.402;6.608;2023-05-15T15:31:27;17.07;73.79
80579;SHT31;69939;52.402;6.608;2023-05-15T15:33:54;16.88;72.92
80579;SHT31;69939;52.402;6.608;2023-05-15T15:36:22;16.74;73.03
80579;SHT31;69939;52.402;6.608;2023-05-15T15:38:49;16.15;74.84
80579;SHT31;69939;52.402;6.608;2023-05-15T15:41:16;16.65;73.51
80579;SHT31;69939;52.402;6.608;2023-05-15T15:43:44;17.08;72.23
80579;SHT31;69939;52.402;6.608;2023-05-15T15:46:13;17.09;71.95